Airfield :
LOGIN :

Register | Disclaimer

   EN    FR    IT 

 










Legend :    VFR   Marginal VFR   IFR   Intensive IFR   Very Intensive IFR
Visi :
Ceiling :
>= 8 km
>= 3000ft
5 to 8 km
1000 to 3000 ft
1500m to 5 km
500 to 1000 ft
800 to 1500m
200 to 500 ft
< 800m
< 200 ft
Symbols :   Thunderstorms  Fog  Heavy snow  Heavy precipitations  Wind > 20 kt
SIGMETs :     Misc.  Thunderstorms  Icing  Turbulence  Mountain Waves  Volcanic Ashes







- Airport Elevation : 82 ft
- IATA code : ALG


DAAG - Alger Houari Boumedienne

CURRENT METAR :
  • 181800Z 28005KT 9999 SCT020TCU FEW030CB SCT043 20/18 Q1008

EXPIRED METARs :
  • 181730Z 29008KT 9999 SCT020TCU FEW030CB SCT043 20/18 Q1007
  • 181700Z 29006KT 9999 SCT020TCU FEW030CB SCT043 21/18 Q1006
  • 181630Z 28005KT 250V310 9999 SCT020TCU FEW030CB BKN043 21/18 Q1006
  • 181600Z 30008KT 260V330 9999 SCT020TCU FEW030CB BKN043 21/18 Q1006
  • 181530Z 32006KT 8000 SCT020TCU FEW030CB BKN043 21/19 Q1006

TAF TAF DAAG
Valid from the 18 at 18:00 until the 19 at 18:00 UTC


181700Z 1818/1918 32010KT 9999 SCT023 BKN043
TEMPO 1818/1821 RA FEW020TCU FEW026CB
BECMG 1820/1824 24008KT
PROB30
TEMPO 1904/1907 5000 -DZ BKN015
BECMG 1912/1916 06010KT
No reported NOTAMs for that airfield.
1 SIGMET reported for the Alger FIR (DAAA) :
 
Embedded thunderstorms
DAAA SIGMET 4 VALID 181800/182100 DAAA ALGER FIR EMBD TS OBS W OF LINE N3713 E00106 - N3348 E00056 TOP FL340 MOV NE NC=



MET'MAP, your aeronautical weather chart ! - Copyright ORBIFLY December 2007 - Disclaimer

ORBIFLY MET'MAP TEAM :

Programming & Development : Alexandra Zaïnal
Concept & Development : Baudouin d'Aumeries
Co-Development & Prog : Marc-Olivier Méhu
Technical & hardware support : Manuel Goepfert

Contact : metmap@orbifly.com




SOURCES & CREDITS :

   NOAA